Time;durP1;ratioP1;P1;durP2;ratioP2;P2;SDS_P1;SDS_P2;PMS_P1;PMS_P2;Temp;Humidity;BMP_temperature;BMP_pressure;BME280_temperature;BME280_humidity;BME280_pressure;Samples;Min_cycle;Max_cycle;Signal;HPM_P1;HPM_P2
2022/03/25 00:02:09;;;;;;;27.00;16.20;;;5.00;74.80;;;;;;5064925;28;20500;-45
2022/03/25 00:04:36;;;;;;;30.67;17.80;;;4.80;75.40;;;;;;5056858;28;20483;-45
2022/03/25 00:07:03;;;;;;;33.40;18.13;;;4.70;76.20;;;;;;5063885;28;20577;-45
2022/03/25 00:09:29;;;;;;;37.40;17.77;;;4.60;76.40;;;;;;5067146;28;20495;-46
2022/03/25 00:11:56;;;;;;;33.87;18.07;;;4.60;76.50;;;;;;5058183;28;20881;-45
2022/03/25 00:14:23;;;;;;;35.97;19.97;;;4.60;76.50;;;;;;5058628;28;21075;-46
2022/03/25 00:16:51;;;;;;;40.80;19.60;;;4.60;76.20;;;;;;5062945;28;21012;-46
2022/03/25 00:19:18;;;;;;;34.40;16.50;;;4.60;76.00;;;;;;5037046;28;21003;-45
2022/03/25 00:21:44;;;;;;;26.30;16.23;;;4.60;75.70;;;;;;5065332;28;20493;-45
2022/03/25 00:24:11;;;;;;;34.70;18.73;;;4.60;76.20;;;;;;5056275;28;20744;-45
2022/03/25 00:26:38;;;;;;;37.27;19.30;;;4.60;75.60;;;;;;5062556;28;20509;-45
2022/03/25 00:29:05;;;;;;;36.33;18.53;;;4.50;75.10;;;;;;5065420;28;20477;-46
2022/03/25 00:31:32;;;;;;;36.20;16.77;;;;;;;;;;5054585;28;20589;-46
2022/03/25 00:34:00;;;;;;;38.13;20.93;;;4.40;76.60;;;;;;5052676;28;20484;-45
2022/03/25 00:36:27;;;;;;;29.97;16.07;;;4.40;76.70;;;;;;5063677;28;20482;-46
2022/03/25 00:38:53;;;;;;;32.43;15.53;;;4.30;76.20;;;;;;5063833;28;20477;-46
2022/03/25 00:41:23;;;;;;;28.53;16.73;;;4.30;76.10;;;;;;5066046;28;20658;-45
2022/03/25 00:43:50;;;;;;;34.60;18.50;;;4.30;76.40;;;;;;5054112;28;20521;-45
2022/03/25 00:46:17;;;;;;;40.63;17.90;;;4.20;76.70;;;;;;5051850;28;20476;-45
2022/03/25 00:48:44;;;;;;;35.23;19.20;;;4.10;77.10;;;;;;5066341;28;20493;-45
2022/03/25 00:51:12;;;;;;;34.33;18.47;;;4.10;77.30;;;;;;5063188;28;20490;-45
2022/03/25 00:53:39;;;;;;;30.40;17.07;;;4.00;77.10;;;;;;5059257;28;20479;-45
2022/03/25 00:56:06;;;;;;;34.57;18.33;;;4.00;77.10;;;;;;5064247;28;21078;-45
2022/03/25 00:58:33;;;;;;;38.73;19.83;;;4.00;77.40;;;;;;5067688;28;20481;-45
2022/03/25 01:01:00;;;;;;;38.57;20.60;;;3.90;77.90;;;;;;5064174;28;20616;-46
2022/03/25 01:03:27;;;;;;;34.73;18.47;;;3.80;78.10;;;;;;5057089;28;20475;-46
2022/03/25 01:05:53;;;;;;;35.63;19.03;;;3.80;77.90;;;;;;5053979;28;20698;-47
2022/03/25 01:08:21;;;;;;;45.07;21.73;;;3.80;77.20;;;;;;5063530;28;20477;-45
2022/03/25 01:10:48;;;;;;;38.40;17.20;;;3.80;76.90;;;;;;5064794;28;20481;-45
2022/03/25 01:13:15;;;;;;;36.43;19.33;;;3.70;77.30;;;;;;5062628;28;20503;-45
2022/03/25 01:15:42;;;;;;;39.77;19.90;;;3.70;78.30;;;;;;5061549;28;20478;-45
2022/03/25 01:18:08;;;;;;;38.60;20.03;;;3.60;78.60;;;;;;5066873;28;20478;-45
2022/03/25 01:20:35;;;;;;;37.63;19.90;;;3.50;78.90;;;;;;5066474;28;20482;-45
2022/03/25 01:23:02;;;;;;;48.83;20.30;;;3.40;79.20;;;;;;5066153;28;21389;-46
2022/03/25 01:25:32;;;;;;;42.77;21.90;;;3.40;79.20;;;;;;5059024;28;20618;-45
2022/03/25 01:27:58;;;;;;;62.57;20.27;;;3.40;79.40;;;;;;5064890;28;20837;-45
2022/03/25 01:30:25;;;;;;;44.67;20.03;;;3.40;78.90;;;;;;5067368;28;20727;-46
2022/03/25 01:32:52;;;;;;;42.10;21.13;;;3.40;78.80;;;;;;5066159;28;21043;-45
2022/03/25 01:35:22;;;;;;;41.40;19.53;;;3.50;78.50;;;;;;5035730;28;20473;-45
2022/03/25 01:37:49;;;;;;;40.60;20.70;;;3.60;77.80;;;;;;5065835;28;20572;-45
2022/03/25 01:40:16;;;;;;;39.20;19.43;;;3.60;77.50;;;;;;5063272;28;20481;-44
2022/03/25 01:42:44;;;;;;;38.53;22.17;;;3.50;77.50;;;;;;5065095;28;20473;-45
2022/03/25 01:45:12;;;;;;;38.60;18.97;;;3.50;77.70;;;;;;5054231;28;20480;-45
2022/03/25 01:47:40;;;;;;;35.33;19.13;;;3.50;77.80;;;;;;5066114;28;20482;-45
2022/03/25 01:50:18;;;;;;;37.03;19.30;;;3.40;77.60;;;;;;5065173;28;20897;-45
2022/03/25 01:52:45;;;;;;;36.10;18.33;;;3.50;77.70;;;;;;5067160;28;22169;-45
2022/03/25 01:55:17;;;;;;;37.33;19.83;;;3.40;78.00;;;;;;5056016;28;20481;-45
2022/03/25 01:57:45;;;;;;;39.73;20.83;;;3.30;78.80;;;;;;5065519;28;20504;-45
2022/03/25 02:00:15;;;;;;;34.47;20.13;;;3.30;78.50;;;;;;5065056;28;20477;-45
2022/03/25 02:02:43;;;;;;;40.73;20.03;;;3.30;78.10;;;;;;5067966;28;20510;-45
2022/03/25 02:05:10;;;;;;;46.50;20.47;;;3.40;77.70;;;;;;5056508;28;20531;-45
2022/03/25 02:07:37;;;;;;;39.10;21.10;;;3.40;77.80;;;;;;5066384;28;20912;-45
2022/03/25 02:10:05;;;;;;;38.07;19.27;;;3.40;77.60;;;;;;5064558;28;20489;-45
2022/03/25 02:12:32;;;;;;;42.10;21.60;;;3.30;78.20;;;;;;5065542;28;21026;-45
2022/03/25 02:15:00;;;;;;;35.50;18.57;;;3.20;78.40;;;;;;5056123;28;20968;-45
2022/03/25 02:17:27;;;;;;;36.40;19.83;;;3.30;78.30;;;;;;5063876;28;20841;-45
2022/03/25 02:19:54;;;;;;;43.47;18.73;;;3.30;77.90;;;;;;5067834;28;20482;-45
2022/03/25 02:22:22;;;;;;;35.10;18.47;;;3.30;77.70;;;;;;5068651;28;20479;-45
2022/03/25 02:24:49;;;;;;;37.47;20.50;;;3.30;77.20;;;;;;5058135;28;20483;-45
2022/03/25 02:27:17;;;;;;;54.53;23.83;;;3.20;78.40;;;;;;5063741;28;20486;-45
2022/03/25 02:29:44;;;;;;;39.07;19.53;;;3.20;78.10;;;;;;5052166;28;20586;-45
2022/03/25 02:32:11;;;;;;;38.90;19.63;;;3.20;77.40;;;;;;5060273;28;20473;-45
2022/03/25 02:34:37;;;;;;;39.63;17.90;;;3.30;76.90;;;;;;5061213;28;20510;-45
2022/03/25 02:37:05;;;;;;;44.90;18.97;;;3.20;77.20;;;;;;5064291;28;21034;-45
2022/03/25 02:39:33;;;;;;;42.27;21.30;;;3.20;77.20;;;;;;5064888;28;20494;-46
2022/03/25 02:42:00;;;;;;;42.50;21.03;;;3.10;77.30;;;;;;5063022;28;20475;-45
2022/03/25 02:44:27;;;;;;;43.23;20.23;;;3.10;77.50;;;;;;5059150;28;20489;-45
2022/03/25 02:46:54;;;;;;;46.07;20.13;;;3.00;77.60;;;;;;5033578;28;20959;-45
2022/03/25 02:49:21;;;;;;;45.23;21.10;;;2.90;78.10;;;;;;5062623;28;20473;-45
2022/03/25 02:51:48;;;;;;;39.60;19.90;;;2.80;78.60;;;;;;5063193;28;20455;-45
2022/03/25 02:54:15;;;;;;;42.33;20.50;;;2.70;79.30;;;;;;5056332;28;20484;-45
2022/03/25 02:56:43;;;;;;;44.10;19.93;;;2.70;79.10;;;;;;5064420;28;21354;-46
2022/03/25 02:59:10;;;;;;;36.53;19.73;;;2.70;79.10;;;;;;5052525;28;20879;-45
2022/03/25 03:01:36;;;;;;;43.87;20.43;;;2.70;78.90;;;;;;5063636;28;20563;-45
2022/03/25 03:04:03;;;;;;;52.23;19.63;;;2.70;79.20;;;;;;5059847;28;21021;-46
2022/03/25 03:06:30;;;;;;;44.07;21.70;;;2.70;79.40;;;;;;5064628;28;20990;-45
2022/03/25 03:08:57;;;;;;;43.43;22.10;;;2.70;79.50;;;;;;5064254;28;20486;-45
2022/03/25 03:11:24;;;;;;;47.87;20.37;;;2.70;79.50;;;;;;5063230;28;20878;-45
2022/03/25 03:13:52;;;;;;;39.63;18.83;;;2.70;79.00;;;;;;5058931;28;20519;-47
2022/03/25 03:16:20;;;;;;;38.50;21.10;;;2.80;78.40;;;;;;5062541;28;20482;-45
2022/03/25 03:18:47;;;;;;;50.10;19.77;;;2.80;77.80;;;;;;5064193;28;20488;-45
2022/03/25 03:21:13;;;;;;;42.63;21.60;;;2.80;77.50;;;;;;5059156;28;20863;-45
2022/03/25 03:23:40;;;;;;;53.13;20.40;;;2.80;77.90;;;;;;5060339;28;20498;-45
2022/03/25 03:26:07;;;;;;;52.53;20.17;;;2.80;77.90;;;;;;5059653;28;20501;-45
2022/03/25 03:28:34;;;;;;;37.93;21.00;;;2.80;77.70;;;;;;5061250;28;20486;-45
2022/03/25 03:31:02;;;;;;;36.57;19.93;;;2.70;77.60;;;;;;5060322;28;20490;-51
2022/03/25 03:33:28;;;;;;;44.10;20.23;;;2.60;78.40;;;;;;5060458;28;20497;-45
2022/03/25 03:35:55;;;;;;;38.63;19.70;;;2.50;78.80;;;;;;5063428;28;20850;-44
2022/03/25 03:38:22;;;;;;;46.23;20.63;;;2.50;79.10;;;;;;5062892;28;20513;-45
2022/03/25 03:40:49;;;;;;;47.47;20.20;;;2.50;78.70;;;;;;5061858;28;20490;-45
2022/03/25 03:43:15;;;;;;;37.30;20.10;;;2.50;78.50;;;;;;5060265;28;20904;-45
2022/03/25 03:45:42;;;;;;;32.67;18.67;;;2.50;78.20;;;;;;5061384;28;20573;-46
2022/03/25 03:48:11;;;;;;;54.77;23.00;;;2.50;78.00;;;;;;5066089;28;20474;-45
2022/03/25 03:50:38;;;;;;;42.27;19.90;;;2.40;78.10;;;;;;5063378;28;20493;-45
2022/03/25 03:53:05;;;;;;;39.20;20.27;;;2.40;77.90;;;;;;5060680;28;20581;-45
2022/03/25 03:55:32;;;;;;;50.67;22.23;;;2.50;77.50;;;;;;5059831;28;20490;-49
2022/03/25 03:57:59;;;;;;;41.73;20.17;;;2.50;77.80;;;;;;5062980;28;21080;-45
2022/03/25 04:00:26;;;;;;;42.40;20.70;;;2.50;77.70;;;;;;5063217;28;20490;-45
2022/03/25 04:02:54;;;;;;;45.13;21.50;;;2.40;78.40;;;;;;5062913;28;20473;-45
2022/03/25 04:05:22;;;;;;;37.63;19.87;;;2.30;78.40;;;;;;5046400;28;20565;-45
2022/03/25 04:07:49;;;;;;;42.00;20.47;;;;;;;;;;5063082;28;21367;-45
2022/03/25 04:10:18;;;;;;;40.77;20.50;;;2.30;78.00;;;;;;5061291;28;20896;-45
2022/03/25 04:12:46;;;;;;;49.57;21.03;;;2.10;78.40;;;;;;5062586;28;20477;-45
2022/03/25 04:15:15;;;;;;;45.80;20.20;;;2.00;80.90;;;;;;5056376;28;20482;-45
2022/03/25 04:17:43;;;;;;;38.50;19.40;;;2.00;81.00;;;;;;5060145;28;20501;-45
2022/03/25 04:20:14;;;;;;;44.37;20.70;;;2.10;80.20;;;;;;5027076;28;1041391;-46
2022/03/25 04:22:42;;;;;;;37.10;20.33;;;2.20;79.20;;;;;;5066139;28;20248;-45
2022/03/25 04:25:09;;;;;;;36.37;17.50;;;2.20;78.70;;;;;;5056055;28;20489;-45
2022/03/25 04:27:46;;;;;;;37.40;17.80;;;2.30;78.40;;;;;;5059297;28;20485;-46
2022/03/25 04:30:13;;;;;;;33.83;18.50;;;2.30;78.20;;;;;;5066210;28;20607;-45
2022/03/25 04:32:40;;;;;;;33.30;17.10;;;2.30;78.20;;;;;;5062768;28;20482;-45
2022/03/25 04:35:08;;;;;;;34.70;19.23;;;2.30;78.70;;;;;;5057459;28;20482;-45
2022/03/25 04:37:34;;;;;;;40.70;20.30;;;2.30;78.30;;;;;;5060551;28;20555;-45
2022/03/25 04:40:04;;;;;;;42.90;20.83;;;2.40;77.70;;;;;;5062937;28;20559;-45
2022/03/25 04:42:31;;;;;;;41.80;21.30;;;2.40;77.60;;;;;;5033924;28;21007;-45
2022/03/25 04:44:58;;;;;;;48.13;20.40;;;2.40;77.50;;;;;;5057402;28;20482;-45
2022/03/25 04:47:25;;;;;;;41.27;19.57;;;2.40;77.50;;;;;;5057227;28;20487;-44
2022/03/25 04:49:51;;;;;;;29.53;16.10;;;2.30;77.30;;;;;;5061553;28;20490;-45
2022/03/25 04:52:18;;;;;;;36.10;19.27;;;2.30;77.00;;;;;;5061203;28;20487;-45
2022/03/25 04:54:45;;;;;;;36.97;19.90;;;2.10;77.10;;;;;;5059644;28;20486;-45
2022/03/25 04:57:13;;;;;;;31.13;18.00;;;1.80;78.20;;;;;;5060029;28;20481;-47
2022/03/25 04:59:39;;;;;;;38.33;21.20;;;1.70;78.60;;;;;;5061473;28;20493;-44
2022/03/25 05:02:06;;;;;;;39.10;20.80;;;1.50;79.10;;;;;;5060007;28;20494;-47
2022/03/25 05:04:33;;;;;;;46.13;19.27;;;1.40;79.90;;;;;;5049293;28;20491;-44
2022/03/25 05:07:00;;;;;;;35.10;18.33;;;1.40;79.90;;;;;;5055852;28;20859;-45
2022/03/25 05:09:26;;;;;;;40.90;19.63;;;1.40;80.90;;;;;;5050115;28;20477;-44
2022/03/25 05:11:54;;;;;;;39.97;20.27;;;1.30;81.30;;;;;;5059377;28;20493;-44
2022/03/25 05:14:22;;;;;;;44.80;21.13;;;1.40;81.50;;;;;;5058426;28;20494;-45
2022/03/25 05:16:52;;;;;;;38.03;19.37;;;1.40;81.20;;;;;;5062590;28;20485;-45
2022/03/25 05:19:19;;;;;;;43.07;19.00;;;1.50;81.00;;;;;;5063620;28;20511;-45
2022/03/25 05:21:46;;;;;;;42.90;19.93;;;1.50;80.90;;;;;;5058175;28;21210;-45
2022/03/25 05:24:13;;;;;;;43.30;18.60;;;1.60;80.30;;;;;;5057189;28;20481;-45
2022/03/25 05:26:40;;;;;;;43.60;19.77;;;1.70;79.20;;;;;;5061988;28;20562;-45
2022/03/25 05:29:07;;;;;;;38.73;20.73;;;1.70;78.70;;;;;;5060782;28;20487;-45
2022/03/25 05:31:36;;;;;;;41.87;19.47;;;1.60;78.80;;;;;;5057808;28;20474;-45
2022/03/25 05:34:04;;;;;;;41.97;19.33;;;1.40;79.60;;;;;;5057586;28;20474;-45
2022/03/25 05:36:31;;;;;;;38.30;20.03;;;1.50;80.00;;;;;;5063182;28;21026;-45
2022/03/25 05:38:58;;;;;;;40.63;19.90;;;1.50;79.40;;;;;;5059250;28;20514;-45
2022/03/25 05:41:25;;;;;;;35.13;19.63;;;1.60;79.20;;;;;;5061120;28;20569;-45
2022/03/25 05:43:52;;;;;;;39.37;19.07;;;1.70;79.10;;;;;;5056359;28;20493;-48
2022/03/25 05:46:19;;;;;;;39.50;20.37;;;1.80;79.00;;;;;;5064690;28;20486;-45
2022/03/25 05:48:47;;;;;;;37.00;18.63;;;1.80;78.80;;;;;;5060901;28;20489;-45
2022/03/25 05:51:14;;;;;;;42.50;20.50;;;1.80;78.30;;;;;;5060882;28;20481;-45
2022/03/25 05:53:42;;;;;;;36.67;18.90;;;1.80;78.30;;;;;;5058345;28;20540;-45
2022/03/25 05:56:10;;;;;;;55.43;19.93;;;1.80;78.60;;;;;;5061538;28;20486;-45
2022/03/25 05:58:38;;;;;;;48.20;21.03;;;1.70;78.50;;;;;;5060557;28;21271;-45
2022/03/25 06:01:07;;;;;;;34.73;18.87;;;1.80;78.20;;;;;;5059379;28;20489;-45
2022/03/25 06:03:34;;;;;;;36.90;18.00;;;1.90;79.10;;;;;;5058334;28;20581;-45
2022/03/25 06:06:04;;;;;;;41.30;20.07;;;1.90;79.30;;;;;;5059652;28;20477;-45
2022/03/25 06:08:31;;;;;;;44.67;22.17;;;2.00;79.20;;;;;;5061337;28;20482;-45
2022/03/25 06:10:59;;;;;;;47.73;21.70;;;2.10;78.70;;;;;;5060214;28;20493;-45
2022/03/25 06:13:26;;;;;;;35.90;18.77;;;2.10;78.60;;;;;;5059257;28;20573;-45
2022/03/25 06:15:53;;;;;;;46.13;19.77;;;2.20;78.40;;;;;;5063133;28;20539;-45
2022/03/25 06:18:21;;;;;;;45.80;21.03;;;2.20;78.20;;;;;;5061308;28;20837;-45
2022/03/25 06:20:48;;;;;;;48.43;21.40;;;2.20;78.20;;;;;;5061018;28;20470;-45
2022/03/25 06:23:16;;;;;;;37.53;19.17;;;2.30;78.10;;;;;;5059305;28;20482;-45
2022/03/25 06:25:43;;;;;;;34.93;19.43;;;2.40;78.30;;;;;;5060205;28;21319;-45
2022/03/25 06:28:10;;;;;;;44.23;22.83;;;2.70;78.80;;;;;;5061185;28;20512;-45
2022/03/25 06:30:39;;;;;;;56.93;22.97;;;;;;;;;;5058803;28;20478;-45
2022/03/25 06:33:09;;;;;;;52.43;24.70;;;4.40;79.80;;;;;;5063745;28;20485;-45
2022/03/25 06:35:36;;;;;;;49.00;25.10;;;5.30;77.90;;;;;;5059399;28;20485;-46
2022/03/25 06:38:04;;;;;;;43.03;21.40;;;6.50;75.00;;;;;;5060696;28;20486;-46
2022/03/25 06:40:33;;;;;;;43.37;22.43;;;6.50;75.50;;;;;;5060582;28;20487;-46
2022/03/25 06:42:59;;;;;;;45.23;22.57;;;7.50;73.70;;;;;;5059808;28;20579;-46
2022/03/25 06:45:27;;;;;;;68.27;22.43;;;9.30;71.40;;;;;;5057417;28;20485;-46
2022/03/25 06:47:54;;;;;;;52.03;21.60;;;10.00;67.70;;;;;;5058732;28;20480;-46
2022/03/25 06:50:24;;;;;;;41.47;22.30;;;10.10;67.90;;;;;;5060644;28;20481;-47
2022/03/25 06:52:51;;;;;;;57.97;23.43;;;11.40;64.90;;;;;;5045598;28;21156;-47
2022/03/25 06:55:19;;;;;;;48.20;23.53;;;11.40;65.30;;;;;;5056035;28;20490;-47
2022/03/25 06:57:48;;;;;;;49.30;24.23;;;12.10;64.70;;;;;;5065145;28;20524;-47
2022/03/25 07:00:15;;;;;;;47.07;22.67;;;13.20;63.20;;;;;;5060154;28;20485;-47
2022/03/25 07:02:44;;;;;;;37.73;22.90;;;13.30;64.10;;;;;;5061141;28;20477;-46
2022/03/25 07:05:12;;;;;;;45.33;22.73;;;13.90;63.90;;;;;;5058338;28;20486;-46
2022/03/25 07:07:41;;;;;;;42.00;22.83;;;14.90;60.30;;;;;;5065342;28;20512;-46
2022/03/25 07:10:10;;;;;;;36.63;24.90;;;15.00;59.60;;;;;;5064296;28;21048;-46
2022/03/25 07:12:40;;;;;;;46.03;23.70;;;15.30;60.80;;;;;;5064875;28;20592;-46
2022/03/25 07:15:09;;;;;;;47.73;22.77;;;15.80;59.60;;;;;;5061566;28;20480;-46
2022/03/25 07:17:38;;;;;;;42.77;24.70;;;16.30;59.00;;;;;;5060281;28;20467;-47
2022/03/25 07:20:06;;;;;;;54.23;24.57;;;17.10;58.20;;;;;;5064226;28;20484;-46
2022/03/25 07:22:33;;;;;;;33.67;23.00;;;17.10;58.80;;;;;;5063501;28;20477;-46
2022/03/25 07:25:01;;;;;;;40.73;24.60;;;17.50;59.50;;;;;;5059390;28;20487;-47
2022/03/25 07:27:27;;;;;;;38.43;23.50;;;18.10;58.10;;;;;;5063184;28;20884;-46
2022/03/25 07:29:54;;;;;;;31.67;21.23;;;18.10;58.60;;;;;;5063338;28;20490;-47
2022/03/25 07:32:22;;;;;;;39.27;23.97;;;18.40;58.20;;;;;;5062380;28;20504;-48
2022/03/25 07:34:49;;;;;;;34.70;23.27;;;18.90;57.80;;;;;;5059968;28;20559;-51
2022/03/25 07:37:16;;;;;;;35.07;24.60;;;19.00;57.70;;;;;;5062888;28;20479;-48
2022/03/25 07:39:44;;;;;;;36.97;25.60;;;19.00;58.40;;;;;;5064625;28;20491;-47
2022/03/25 07:42:11;;;;;;;39.93;26.80;;;19.10;57.30;;;;;;5063989;28;20486;-47
2022/03/25 07:44:39;;;;;;;39.63;26.73;;;19.10;57.80;;;;;;5057600;28;20968;-47
2022/03/25 07:47:06;;;;;;;37.73;26.40;;;19.00;57.40;;;;;;5062636;28;21351;-48
2022/03/25 07:49:35;;;;;;;48.47;27.73;;;18.70;57.10;;;;;;5064545;28;20493;-47
2022/03/25 07:52:02;;;;;;;39.80;25.60;;;18.70;57.80;;;;;;5063562;28;21053;-47
2022/03/25 07:54:29;;;;;;;39.47;26.27;;;18.40;58.00;;;;;;5056671;28;20475;-47
2022/03/25 07:56:58;;;;;;;51.20;30.00;;;17.90;57.40;;;;;;5068886;28;20487;-47
2022/03/25 07:59:25;;;;;;;50.90;29.27;;;17.90;58.20;;;;;;5063382;28;20475;-47
2022/03/25 08:01:53;;;;;;;41.87;27.70;;;17.70;58.70;;;;;;5063622;28;20493;-47
2022/03/25 08:04:20;;;;;;;48.43;28.60;;;17.40;59.50;;;;;;5059097;28;20839;-51
2022/03/25 08:06:48;;;;;;;53.57;30.00;;;17.30;59.40;;;;;;5063831;28;20521;-48
2022/03/25 08:09:15;;;;;;;56.07;31.67;;;17.30;59.40;;;;;;5061451;28;20474;-47
2022/03/25 08:11:42;;;;;;;60.90;31.83;;;17.30;58.30;;;;;;5063919;28;20471;-47
2022/03/25 08:14:09;;;;;;;57.10;33.57;;;17.30;58.70;;;;;;5059643;28;20462;-47
2022/03/25 08:16:36;;;;;;;51.77;30.00;;;17.30;58.90;;;;;;5065481;28;20494;-48
2022/03/25 08:19:02;;;;;;;54.40;32.23;;;17.30;59.00;;;;;;5062607;28;21007;-48
2022/03/25 08:21:29;;;;;;;57.30;32.70;;;17.30;58.70;;;;;;5062789;28;20490;-48
2022/03/25 08:29:27;;;;;;;73.67;33.87;;;17.60;59.80;;;;;;5058109;28;21028;-48
2022/03/25 08:31:54;;;;;;;52.97;32.70;;;17.60;60.00;;;;;;5063146;28;20474;-47
2022/03/25 08:34:21;;;;;;;53.67;33.00;;;17.70;60.60;;;;;;5059552;28;20961;-48
2022/03/25 08:36:50;;;;;;;55.37;31.20;;;17.90;60.30;;;;;;5061392;28;21271;-48
2022/03/25 08:39:19;;;;;;;54.00;33.73;;;17.90;61.20;;;;;;5062613;28;20482;-48
2022/03/25 08:41:45;;;;;;;48.37;32.17;;;18.10;61.00;;;;;;5032499;28;20478;-48
2022/03/25 08:44:12;;;;;;;55.67;32.30;;;18.40;59.60;;;;;;5058404;28;20513;-48
2022/03/25 08:46:39;;;;;;;57.90;34.40;;;18.40;60.00;;;;;;5063117;28;20471;-48
2022/03/25 08:49:06;;;;;;;54.83;34.80;;;18.60;59.60;;;;;;5062260;28;20574;-48
2022/03/25 08:51:33;;;;;;;60.00;35.27;;;18.80;58.20;;;;;;5060866;28;20486;-48
2022/03/25 08:54:00;;;;;;;58.97;34.07;;;18.80;58.60;;;;;;5058200;28;20491;-49
2022/03/25 08:56:28;;;;;;;59.90;36.47;;;18.90;58.60;;;;;;5061551;28;20505;-48
2022/03/25 08:58:58;;;;;;;70.43;36.17;;;19.20;58.80;;;;;;5061239;28;20479;-48
2022/03/25 09:01:25;;;;;;;59.50;34.77;;;19.20;58.90;;;;;;5062865;28;20482;-49
2022/03/25 09:03:52;;;;;;;59.47;35.33;;;19.30;59.00;;;;;;5059143;28;20720;-48
2022/03/25 09:06:19;;;;;;;64.97;34.90;;;19.70;58.00;;;;;;5066838;28;20517;-48
2022/03/25 09:08:46;;;;;;;61.67;36.23;;;19.60;57.90;;;;;;5069871;28;20475;-48
2022/03/25 09:11:12;;;;;;;58.80;35.77;;;19.70;58.30;;;;;;5061395;28;20475;-48
2022/03/25 09:13:41;;;;;;;56.90;36.13;;;19.80;57.80;;;;;;5057796;28;20486;-48
2022/03/25 09:16:08;;;;;;;52.33;32.13;;;19.80;58.30;;;;;;5062127;28;20573;-48
2022/03/25 09:18:35;;;;;;;63.20;34.70;;;19.90;57.40;;;;;;5062532;28;20977;-48
2022/03/25 09:21:01;;;;;;;61.23;35.87;;;20.10;57.30;;;;;;5061887;28;20474;-48
2022/03/25 09:23:28;;;;;;;59.50;34.30;;;20.20;57.90;;;;;;5059768;28;20483;-48
2022/03/25 09:25:55;;;;;;;54.53;34.40;;;20.30;57.50;;;;;;5061906;28;20471;-48
2022/03/25 09:28:22;;;;;;;65.53;37.20;;;20.40;57.80;;;;;;5061584;28;20481;-49
2022/03/25 09:30:50;;;;;;;58.67;35.90;;;20.50;58.40;;;;;;5062233;28;20479;-48
2022/03/25 09:33:17;;;;;;;50.43;34.53;;;20.70;58.30;;;;;;5059250;28;20482;-48
2022/03/25 09:35:44;;;;;;;60.93;34.77;;;20.90;56.90;;;;;;5061351;28;20476;-48
2022/03/25 09:38:11;;;;;;;53.63;34.17;;;20.90;56.60;;;;;;5061892;28;20511;-48
2022/03/25 09:40:41;;;;;;;58.23;36.33;;;21.20;57.60;;;;;;5062589;28;20557;-48
2022/03/25 09:43:08;;;;;;;67.73;34.77;;;21.20;57.40;;;;;;5059910;28;20498;-49
2022/03/25 09:45:35;;;;;;;54.20;34.73;;;21.30;57.40;;;;;;5059177;28;20987;-48
2022/03/25 09:48:04;;;;;;;59.37;37.17;;;21.60;55.40;;;;;;5068464;28;20481;-48
2022/03/25 09:50:31;;;;;;;59.70;36.83;;;21.70;56.70;;;;;;5059413;28;20489;-49
2022/03/25 09:52:58;;;;;;;60.33;36.93;;;21.70;56.80;;;;;;5062268;28;20980;-49
2022/03/25 09:55:25;;;;;;;68.37;36.77;;;21.80;54.10;;;;;;5058189;28;20834;-48
2022/03/25 09:57:51;;;;;;;56.20;36.80;;;21.90;55.70;;;;;;5062452;28;20474;-49
2022/03/25 10:00:20;;;;;;;54.10;35.87;;;22.00;56.30;;;;;;5061617;28;20482;-48
2022/03/25 10:02:47;;;;;;;65.30;35.50;;;22.10;54.80;;;;;;5061809;28;20512;-48
2022/03/25 10:05:17;;;;;;;70.10;38.77;;;22.00;53.80;;;;;;5056035;28;21017;-48
2022/03/25 10:07:46;;;;;;;64.13;39.70;;;22.10;55.80;;;;;;5062147;28;20481;-48
2022/03/25 10:10:14;;;;;;;56.67;35.37;;;22.20;55.60;;;;;;5060103;28;21060;-48
2022/03/25 10:12:43;;;;;;;68.60;39.50;;;22.00;51.80;;;;;;5060951;28;20813;-48
2022/03/25 10:15:21;;;;;;;54.33;36.03;;;21.90;54.90;;;;;;5057604;28;20482;-48
2022/03/25 10:17:49;;;;;;;55.80;37.40;;;22.00;54.60;;;;;;5062613;28;20528;-48
2022/03/25 10:20:19;;;;;;;65.37;36.57;;;22.10;54.90;;;;;;5058180;28;20467;-48
2022/03/25 10:23:07;;;;;;;59.10;37.53;;;22.30;54.70;;;;;;5061048;28;20486;-48
2022/03/25 10:25:54;;;;;;;66.30;37.67;;;22.50;53.60;;;;;;5063267;28;20486;-49
2022/03/25 10:28:25;;;;;;;61.13;38.23;;;22.60;51.50;;;;;;5029481;28;20470;-48
2022/03/25 10:30:53;;;;;;;63.43;40.60;;;22.60;54.00;;;;;;5051570;28;20477;-50
2022/03/25 10:33:34;;;;;;;58.17;38.20;;;22.70;53.60;;;;;;5058729;28;20470;-48
2022/03/25 10:36:07;;;;;;;65.40;41.30;;;22.80;52.50;;;;;;5063470;28;21461;-49
2022/03/25 10:38:43;;;;;;;61.20;38.80;;;22.80;49.40;;;;;;5061019;28;20495;-49
2022/03/25 10:41:10;;;;;;;67.17;38.37;;;22.90;53.10;;;;;;5048352;28;20483;-48
2022/03/25 10:43:48;;;;;;;64.27;38.60;;;22.90;51.50;;;;;;5059280;28;20491;-48
2022/03/25 10:46:30;;;;;;;64.57;39.47;;;22.90;52.50;;;;;;5063807;28;20477;-48
2022/03/25 10:48:58;;;;;;;56.37;35.50;;;23.10;52.00;;;;;;5064706;28;20482;-49
2022/03/25 10:51:26;;;;;;;63.73;37.10;;;23.10;52.90;;;;;;5063616;28;20497;-49
2022/03/25 10:53:58;;;;;;;62.23;39.03;;;23.10;52.00;;;;;;5058860;28;20541;-49
2022/03/25 10:56:25;;;;;;;60.00;38.57;;;23.10;52.20;;;;;;5065379;28;20482;-49
2022/03/25 10:58:53;;;;;;;64.67;39.83;;;23.20;53.40;;;;;;5059854;28;20976;-49
2022/03/25 11:01:20;;;;;;;56.40;37.20;;;23.30;51.10;;;;;;5064110;28;20479;-48
2022/03/25 11:03:50;;;;;;;72.47;40.10;;;23.50;52.40;;;;;;5063835;28;20474;-49
2022/03/25 11:06:18;;;;;;;59.57;38.60;;;23.70;53.20;;;;;;5064091;28;20485;-48
2022/03/25 11:08:47;;;;;;;54.33;36.43;;;23.90;52.90;;;;;;5054735;28;20490;-48
2022/03/25 11:11:16;;;;;;;67.37;38.40;;;23.90;50.10;;;;;;5063284;28;20952;-48
2022/03/25 11:13:44;;;;;;;56.10;36.50;;;23.80;48.40;;;;;;5058961;28;20478;-49
2022/03/25 11:16:16;;;;;;;59.43;39.70;;;23.90;50.10;;;;;;5061856;28;20525;-46
2022/03/25 11:18:44;;;;;;;58.47;37.23;;;23.70;50.60;;;;;;5052657;28;20573;-47
2022/03/25 11:21:13;;;;;;;53.47;35.83;;;23.70;49.40;;;;;;5061490;28;20937;-47
2022/03/25 11:23:46;;;;;;;48.43;31.50;;;23.80;46.80;;;;;;5057318;28;20519;-47
2022/03/25 11:26:17;;;;;;;54.67;32.03;;;23.80;46.90;;;;;;5063726;28;20475;-48
2022/03/25 11:28:45;;;;;;;54.50;33.30;;;23.80;46.90;;;;;;5061508;28;20479;-47
2022/03/25 11:31:12;;;;;;;56.07;32.23;;;23.60;46.50;;;;;;5060416;28;20491;-47
2022/03/25 11:34:09;;;;;;;53.43;35.03;;;23.50;46.30;;;;;;5059638;28;20522;-47
2022/03/25 11:36:40;;;;;;;56.07;35.90;;;23.60;48.20;;;;;;5058052;28;20589;-47
2022/03/25 11:39:25;;;;;;;53.57;36.60;;;23.70;50.40;;;;;;5063269;28;21069;-47
2022/03/25 11:41:53;;;;;;;57.73;36.47;;;23.80;47.90;;;;;;5068294;28;20544;-47
2022/03/25 11:44:23;;;;;;;54.43;34.57;;;23.60;46.70;;;;;;5060516;28;20486;-47
2022/03/25 11:47:15;;;;;;;45.23;29.80;;;23.60;45.60;;;;;;5063037;28;20478;-47
2022/03/25 11:49:43;;;;;;;42.00;28.23;;;23.40;45.30;;;;;;5050957;28;20483;-47
2022/03/25 11:52:28;;;;;;;46.93;29.43;;;22.90;43.80;;;;;;5048435;28;20511;-47
2022/03/25 11:54:59;;;;;;;57.27;33.67;;;22.70;46.40;;;;;;5054489;28;20478;-48
2022/03/25 11:57:27;;;;;;;65.00;34.97;;;22.70;45.50;;;;;;5031383;28;20558;-47
2022/03/25 11:59:56;;;;;;;49.80;33.47;;;22.80;48.00;;;;;;5032921;28;20475;-47
2022/03/25 12:02:29;;;;;;;48.77;34.47;;;23.00;47.70;;;;;;5063762;28;20815;-47
2022/03/25 12:04:56;;;;;;;54.03;34.57;;;23.20;46.40;;;;;;5058600;28;21020;-47
2022/03/25 12:07:23;;;;;;;49.73;32.67;;;23.40;47.10;;;;;;5035065;28;20467;-47
2022/03/25 12:09:50;;;;;;;57.87;37.80;;;23.60;47.60;;;;;;5061952;28;20967;-47
2022/03/25 12:12:18;;;;;;;58.77;38.03;;;23.70;47.10;;;;;;5053665;28;20478;-47
2022/03/25 12:15:09;;;;;;;55.83;37.03;;;23.90;48.90;;;;;;5058104;28;20475;-47
2022/03/25 12:17:36;;;;;;;58.70;38.57;;;23.90;47.00;;;;;;5043727;28;20546;-47
2022/03/25 12:20:03;;;;;;;52.80;35.73;;;24.10;50.00;;;;;;5047278;28;20475;-48
2022/03/25 12:22:41;;;;;;;55.13;36.03;;;24.10;46.20;;;;;;5060644;28;20486;-47
2022/03/25 12:25:17;;;;;;;56.23;37.20;;;24.00;46.40;;;;;;5059919;28;20980;-47
2022/03/25 12:27:46;;;;;;;66.10;39.27;;;24.00;47.80;;;;;;5062511;28;20478;-47
2022/03/25 12:30:14;;;;;;;51.00;34.50;;;23.90;47.00;;;;;;5058468;28;20578;-48
2022/03/25 12:32:41;;;;;;;61.70;37.50;;;24.00;47.40;;;;;;5059689;28;20566;-48
2022/03/25 12:35:11;;;;;;;66.57;36.70;;;23.80;46.60;;;;;;5053793;28;21436;-47
2022/03/25 12:37:47;;;;;;;55.53;36.93;;;23.70;46.20;;;;;;5062069;28;20479;-48
2022/03/25 12:40:16;;;;;;;49.30;32.10;;;23.70;46.50;;;;;;5061747;28;20479;-48
2022/03/25 12:42:48;;;;;;;58.17;34.83;;;23.70;46.50;;;;;;5062977;28;20481;-47
2022/03/25 12:45:15;;;;;;;45.57;31.93;;;23.70;44.40;;;;;;5057704;28;20475;-47